Time;durP1;ratioP1;P1;durP2;ratioP2;P2;SDS_P1;SDS_P2;PMS_P1;PMS_P2;Temp;Humidity;BMP_temperature;BMP_pressure;BME280_temperature;BME280_humidity;BME280_pressure;Samples;Min_cycle;Max_cycle;Signal;HPM_P1;HPM_P2
2022/07/19 00:00:16;;;;;;;;;;;;;;;;;;1045322;28;3887;-50
2022/07/19 00:01:06;;;;;;;;;;;;;;;;;;1045183;28;3905;-48
2022/07/19 00:01:36;;;;;;;;;;;;;;;;;;1045356;28;1612;-51
2022/07/19 00:02:07;;;;;;;;;;;;;;;;;;1046049;28;4280;-52
2022/07/19 00:02:38;;;;;;;;;;;;;;;;;;1041710;28;2167;-50
2022/07/19 00:03:08;;;;;;;;;;;;;;;;;;1041126;28;4137;-50
2022/07/19 00:03:38;;;;;;;;;;;;;;;;;;1038240;28;1549;-52
2022/07/19 00:04:08;;;;;;;;;;;;;;;;;;1037933;28;3963;-50
2022/07/19 00:04:39;;;;;;;;;;;;;;;;;;1041761;28;1683;-50
2022/07/19 00:05:10;;;;;;;;;;;;;;;;;;1042095;28;3995;-53
2022/07/19 00:05:40;;;;;;;;;;;;;;;;;;1044860;28;1913;-48
2022/07/19 00:06:10;;;;;;;;;;;;;;;;;;1045656;28;4000;-50
2022/07/19 00:06:41;;;;;;;;;;;;;;;;;;1044865;28;1679;-53
2022/07/19 00:07:11;;;;;;;;;;;;;;;;;;1041727;28;3884;-49
2022/07/19 00:07:41;;;;;;;;;;;;;;;;;;1034092;28;1707;-49
2022/07/19 00:08:12;;;;;;;;;;;;;;;;;;1033750;28;3888;-52
2022/07/19 00:08:42;;;;;;;;;;;;;;;;;;1033661;28;1849;-50
2022/07/19 00:09:12;;;;;;;;;;;;;;;;;;1036150;28;4210;-49
2022/07/19 00:09:42;;;;;;;;;;;;;;;;;;1044979;28;1358;-51
2022/07/19 00:10:14;;;;;;;;;;;;;;;;;;1044666;28;3799;-50
2022/07/19 00:10:44;;;;;;;;;;;;;;;;;;1045589;28;1680;-51
2022/07/19 00:11:15;;;;;;;;;;;;;;;;;;1045355;28;4257;-51
2022/07/19 00:11:45;;;;;;;;;;;;;;;;;;1045392;28;1602;-50
2022/07/19 00:12:15;;;;;;;;;;;;;;;;;;1045450;28;3811;-52
2022/07/19 00:12:46;;;;;;;;;;;;;;;;;;1045344;28;1619;-51
2022/07/19 00:13:16;;;;;;;;;;;;;;;;;;1045700;28;4067;-52
2022/07/19 00:13:46;;;;;;;;;;;;;;;;;;1046293;28;1423;-47
2022/07/19 00:14:17;;;;;;;;;;;;;;;;;;1045739;28;4266;-50
2022/07/19 00:14:47;;;;;;;;;;;;;;;;;;1042271;28;1415;-48
2022/07/19 00:15:17;;;;;;;;;;;;;;;;;;1040929;28;4441;-48
2022/07/19 00:15:47;;;;;;;;;;;;;;;;;;1036612;28;1695;-51
2022/07/19 00:16:18;;;;;;;;;;;;;;;;;;1036794;28;3937;-49
2022/07/19 00:17:01;;;;;;;;;;;;;;;;;;1040189;28;1735;-50
2022/07/19 00:17:41;;;;;;;;;;;;;;;;;;1040423;28;4077;-49
2022/07/19 00:18:11;;;;;;;;;;;;;;;;;;1041486;28;4095;-53
2022/07/19 00:18:42;;;;;;;;;;;;;;;;;;1041333;28;1671;-48
2022/07/19 00:19:12;;;;;;;;;;;;;;;;;;1040717;28;4094;-50
2022/07/19 00:19:42;;;;;;;;;;;;;;;;;;1041141;28;1720;-54
2022/07/19 00:20:14;;;;;;;;;;;;;;;;;;1040027;28;3827;-50
2022/07/19 00:20:45;;;;;;;;;;;;;;;;;;1041123;28;1651;-54
2022/07/19 00:21:15;;;;;;;;;;;;;;;;;;1040866;28;3907;-48
2022/07/19 00:21:45;;;;;;;;;;;;;;;;;;1041107;28;1700;-51
2022/07/19 00:22:15;;;;;;;;;;;;;;;;;;1040683;28;3931;-50
2022/07/19 00:22:46;;;;;;;;;;;;;;;;;;1042017;28;1606;-50
2022/07/19 00:23:16;;;;;;;;;;;;;;;;;;1040677;28;3905;-48
2022/07/19 00:23:46;;;;;;;;;;;;;;;;;;1042070;28;1744;-51
2022/07/19 00:24:17;;;;;;;;;;;;;;;;;;1040084;28;4492;-49
2022/07/19 00:24:47;;;;;;;;;;;;;;;;;;1040599;28;3817;-51
2022/07/19 00:25:17;;;;;;;;;;;;;;;;;;1040546;28;4013;-49
2022/07/19 00:25:47;;;;;;;;;;;;;;;;;;1041452;28;1648;-50
2022/07/19 00:26:18;;;;;;;;;;;;;;;;;;1041530;28;3840;-50
2022/07/19 00:26:48;;;;;;;;;;;;;;;;;;1042630;28;1981;-49
2022/07/19 00:27:18;;;;;;;;;;;;;;;;;;1041119;28;4415;-52
2022/07/19 00:27:49;;;;;;;;;;;;;;;;;;1042613;28;1568;-48
2022/07/19 00:28:19;;;;;;;;;;;;;;;;;;1040624;28;3960;-49
2022/07/19 00:28:49;;;;;;;;;;;;;;;;;;1041501;28;2125;-52
2022/07/19 00:29:19;;;;;;;;;;;;;;;;;;1041191;28;3988;-49
2022/07/19 00:29:56;;;;;;;;;;;;;;;;;;1042010;28;1776;-52
2022/07/19 00:30:26;;;;;;;;;;;;;;;;;;1041608;28;3966;-50
2022/07/19 00:30:58;;;;;;;;;;;;;;;;;;1041863;28;1749;-53
2022/07/19 00:31:28;;;;;;;;;;;;;;;;;;1044843;28;4267;-51
2022/07/19 00:31:59;;;;;;;;;;;;;;;;;;1041725;28;1612;-49
2022/07/19 00:32:29;;;;;;;;;;;;;;;;;;1041439;28;4219;-48
2022/07/19 00:32:59;;;;;;;;;;;;;;;;;;1041547;28;1636;-54
2022/07/19 00:33:30;;;;;;;;;;;;;;;;;;1042013;28;3779;-51
2022/07/19 00:34:00;;;;;;;;;;;;;;;;;;1041119;28;1561;-48
2022/07/19 00:34:30;;;;;;;;;;;;;;;;;;1041561;28;3812;-49
2022/07/19 00:35:01;;;;;;;;;;;;;;;;;;1041520;28;3867;-52
2022/07/19 00:35:31;;;;;;;;;;;;;;;;;;1044877;28;1818;-53
2022/07/19 00:36:01;;;;;;;;;;;;;;;;;;1044229;28;4424;-50
2022/07/19 00:36:32;;;;;;;;;;;;;;;;;;1044175;28;1863;-49
2022/07/19 00:37:02;;;;;;;;;;;;;;;;;;1043569;28;4359;-53
2022/07/19 00:37:32;;;;;;;;;;;;;;;;;;1040953;28;1613;-52
2022/07/19 00:38:09;;;;;;;;;;;;;;;;;;1040643;28;3891;-53
2022/07/19 00:38:40;;;;;;;;;;;;;;;;;;1038247;28;1992;-50
2022/07/19 00:39:10;;;;;;;;;;;;;;;;;;1037713;28;4000;-54
2022/07/19 00:39:40;;;;;;;;;;;;;;;;;;1039180;28;1966;-51
2022/07/19 00:40:11;;;;;;;;;;;;;;;;;;1041426;28;3891;-50
2022/07/19 00:40:42;;;;;;;;;;;;;;;;;;1040291;28;1579;-51
2022/07/19 00:41:12;;;;;;;;;;;;;;;;;;1040747;28;3849;-51
2022/07/19 00:41:43;;;;;;;;;;;;;;;;;;1042147;28;1749;-50
2022/07/19 00:42:15;;;;;;;;;;;;;;;;;;1041384;28;4253;-49
2022/07/19 00:42:45;;;;;;;;;;;;;;;;;;1041555;28;1670;-52
2022/07/19 00:43:15;;;;;;;;;;;;;;;;;;1044466;28;4187;-49
2022/07/19 00:43:45;;;;;;;;;;;;;;;;;;1043512;28;1569;-51
2022/07/19 00:44:16;;;;;;;;;;;;;;;;;;1044862;28;4124;-50
2022/07/19 00:44:46;;;;;;;;;;;;;;;;;;1040717;28;1785;-49
2022/07/19 00:45:16;;;;;;;;;;;;;;;;;;1046238;28;3837;-51
2022/07/19 00:45:46;;;;;;;;;;;;;;;;;;1045890;28;1511;-51
2022/07/19 00:46:18;;;;;;;;;;;;;;;;;;1045876;28;3979;-51
2022/07/19 00:46:49;;;;;;;;;;;;;;;;;;1045931;28;1750;-53
2022/07/19 00:47:19;;;;;;;;;;;;;;;;;;1040536;28;3806;-51
2022/07/19 00:47:50;;;;;;;;;;;;;;;;;;1041057;28;1724;-49
2022/07/19 00:48:20;;;;;;;;;;;;;;;;;;1040886;28;4054;-50
2022/07/19 00:48:51;;;;;;;;;;;;;;;;;;1040179;28;1660;-50
2022/07/19 00:49:21;;;;;;;;;;;;;;;;;;1041493;28;3972;-52
2022/07/19 00:49:51;;;;;;;;;;;;;;;;;;1041415;28;1785;-54
2022/07/19 00:50:22;;;;;;;;;;;;;;;;;;1041928;28;4232;-51
2022/07/19 00:50:52;;;;;;;;;;;;;;;;;;1042210;28;1642;-49
2022/07/19 00:51:23;;;;;;;;;;;;;;;;;;1040376;28;3856;-49
2022/07/19 00:51:54;;;;;;;;;;;;;;;;;;1040856;28;1788;-52
2022/07/19 00:52:25;;;;;;;;;;;;;;;;;;1040504;28;3789;-53
2022/07/19 00:53:00;;;;;;;;;;;;;;;;;;1040194;28;1831;-51
2022/07/19 00:53:30;;;;;;;;;;;;;;;;;;1040321;28;4141;-53
2022/07/19 00:54:02;;;;;;;;;;;;;;;;;;1040576;28;4464;-51
2022/07/19 00:54:33;;;;;;;;;;;;;;;;;;1040530;28;1918;-53
2022/07/19 00:55:04;;;;;;;;;;;;;;;;;;1040287;28;4160;-51
2022/07/19 00:55:40;;;;;;;;;;;;;;;;;;1041051;28;1687;-49
2022/07/19 00:56:11;;;;;;;;;;;;;;;;;;1041085;28;4016;-53
2022/07/19 00:56:42;;;;;;;;;;;;;;;;;;1041271;28;1646;-50
2022/07/19 00:57:14;;;;;;;;;;;;;;;;;;1041352;28;3832;-50
2022/07/19 00:57:45;;;;;;;;;;;;;;;;;;1041880;28;1711;-49
2022/07/19 00:58:16;;;;;;;;;;;;;;;;;;1039907;28;3777;-50
2022/07/19 00:58:46;;;;;;;;;;;;;;;;;;1040290;28;1287;-50
2022/07/19 00:59:18;;;;;;;;;;;;;;;;;;1041594;28;3827;-50
2022/07/19 00:59:51;;;;;;;;;;;;;;;;;;1041958;28;1640;-50
2022/07/19 01:00:21;;;;;;;;;;;;;;;;;;1041655;28;3809;-49
2022/07/19 01:00:51;;;;;;;;;;;;;;;;;;1041706;28;1572;-48
2022/07/19 01:01:28;;;;;;;;;;;;;;;;;;1040042;28;4053;-50
2022/07/19 01:01:58;;;;;;;;;;;;;;;;;;1041097;28;1510;-50
2022/07/19 01:02:29;;;;;;;;;;;;;;;;;;1040353;28;3782;-51
2022/07/19 01:03:00;;;;;;;;;;;;;;;;;;1041082;28;1707;-49
2022/07/19 01:03:30;;;;;;;;;;;;;;;;;;1040433;28;3947;-48
2022/07/19 01:04:00;;;;;;;;;;;;;;;;;;1041481;28;1378;-53
2022/07/19 01:04:31;;;;;;;;;;;;;;;;;;1040981;28;3823;-51
2022/07/19 01:05:01;;;;;;;;;;;;;;;;;;1041795;28;4089;-49
2022/07/19 01:05:32;;;;;;;;;;;;;;;;;;1041725;28;1673;-52
2022/07/19 01:06:02;;;;;;;;;;;;;;;;;;1041690;28;3916;-49
2022/07/19 01:06:32;;;;;;;;;;;;;;;;;;1040405;28;1639;-53
2022/07/19 01:07:03;;;;;;;;;;;;;;;;;;1040562;28;4250;-51
2022/07/19 01:07:34;;;;;;;;;;;;;;;;;;1041067;28;1711;-50
2022/07/19 01:08:05;;;;;;;;;;;;;;;;;;1039962;28;4029;-50
2022/07/19 01:08:36;;;;;;;;;;;;;;;;;;1041485;28;1649;-51
2022/07/19 01:09:06;;;;;;;;;;;;;;;;;;1040584;28;4040;-52
2022/07/19 01:09:37;;;;;;;;;;;;;;;;;;1042015;28;1750;-51
2022/07/19 01:10:09;;;;;;;;;;;;;;;;;;1041535;28;4102;-52
2022/07/19 01:10:39;;;;;;;;;;;;;;;;;;1042385;28;1864;-54
2022/07/19 01:11:09;;;;;;;;;;;;;;;;;;1037412;28;4069;-48
2022/07/19 01:11:40;;;;;;;;;;;;;;;;;;1042285;28;1571;-53
2022/07/19 01:12:11;;;;;;;;;;;;;;;;;;1041783;28;3959;-52
2022/07/19 01:12:42;;;;;;;;;;;;;;;;;;1042055;28;1724;-52
2022/07/19 01:13:12;;;;;;;;;;;;;;;;;;1040245;28;4274;-50
2022/07/19 01:13:43;;;;;;;;;;;;;;;;;;1041756;28;1795;-49
2022/07/19 01:14:13;;;;;;;;;;;;;;;;;;1039770;28;4589;-51
2022/07/19 01:14:43;;;;;;;;;;;;;;;;;;1040830;28;1577;-54
2022/07/19 01:15:19;;;;;;;;;;;;;;;;;;1040373;28;4028;-50
2022/07/19 01:15:49;;;;;;;;;;;;;;;;;;1040477;28;1652;-52
2022/07/19 01:16:22;;;;;;;;;;;;;;;;;;1040490;28;3841;-51
2022/07/19 01:17:05;;;;;;;;;;;;;;;;;;1041286;28;1470;-51
2022/07/19 01:17:43;;;;;;;;;;;;;;;;;;1044801;28;3955;-53
2022/07/19 01:18:13;;;;;;;;;;;;;;;;;;1045586;28;4040;-52
2022/07/19 01:18:43;;;;;;;;;;;;;;;;;;1045374;28;1794;-50
2022/07/19 01:19:21;;;;;;;;;;;;;;;;;;1044807;28;4222;-48
2022/07/19 01:19:51;;;;;;;;;;;;;;;;;;1045000;28;1937;-49
2022/07/19 01:20:22;;;;;;;;;;;;;;;;;;1045470;28;4032;-49
2022/07/19 01:20:54;;;;;;;;;;;;;;;;;;1041838;28;1570;-52
2022/07/19 01:21:26;;;;;;;;;;;;;;;;;;1041603;28;4069;-51
2022/07/19 01:21:56;;;;;;;;;;;;;;;;;;1041522;28;1580;-50
2022/07/19 01:22:27;;;;;;;;;;;;;;;;;;1042019;28;4013;-52
2022/07/19 01:22:57;;;;;;;;;;;;;;;;;;1044368;28;1776;-52
2022/07/19 01:23:27;;;;;;;;;;;;;;;;;;1039984;28;4011;-49
2022/07/19 01:23:57;;;;;;;;;;;;;;;;;;1039945;28;1451;-51
2022/07/19 01:24:28;;;;;;;;;;;;;;;;;;1037628;28;3881;-51
2022/07/19 01:24:58;;;;;;;;;;;;;;;;;;1037292;28;3571;-49
2022/07/19 01:25:30;;;;;;;;;;;;;;;;;;1037658;28;4371;-51
2022/07/19 01:26:00;;;;;;;;;;;;;;;;;;1037699;28;1754;-48
2022/07/19 01:26:30;;;;;;;;;;;;;;;;;;1042011;28;4012;-52
2022/07/19 01:27:01;;;;;;;;;;;;;;;;;;1041631;28;4355;-50
2022/07/19 01:27:31;;;;;;;;;;;;;;;;;;1045492;28;1550;-48
2022/07/19 01:28:03;;;;;;;;;;;;;;;;;;1044240;28;4013;-52
2022/07/19 01:28:34;;;;;;;;;;;;;;;;;;1045179;28;1699;-48
2022/07/19 01:29:04;;;;;;;;;;;;;;;;;;1044022;28;3832;-52
2022/07/19 01:29:37;;;;;;;;;;;;;;;;;;1045177;28;1612;-52
2022/07/19 01:30:18;;;;;;;;;;;;;;;;;;1044138;28;3868;-51
2022/07/19 01:30:50;;;;;;;;;;;;;;;;;;1045305;28;1652;-52
2022/07/19 01:31:20;;;;;;;;;;;;;;;;;;1041651;28;4371;-50
2022/07/19 01:31:51;;;;;;;;;;;;;;;;;;1042022;28;1655;-47
2022/07/19 01:32:21;;;;;;;;;;;;;;;;;;1041684;28;4262;-49
2022/07/19 01:32:52;;;;;;;;;;;;;;;;;;1042130;28;1640;-50
2022/07/19 01:33:22;;;;;;;;;;;;;;;;;;1040867;28;4284;-48
2022/07/19 01:33:53;;;;;;;;;;;;;;;;;;1041878;28;1741;-50
2022/07/19 01:34:23;;;;;;;;;;;;;;;;;;1040965;28;3874;-48
2022/07/19 01:34:53;;;;;;;;;;;;;;;;;;1041800;28;1570;-54
2022/07/19 01:35:24;;;;;;;;;;;;;;;;;;1041524;28;4430;-50
2022/07/19 01:35:54;;;;;;;;;;;;;;;;;;1041647;28;1657;-49
2022/07/19 01:36:24;;;;;;;;;;;;;;;;;;1045655;28;3973;-48
2022/07/19 01:36:55;;;;;;;;;;;;;;;;;;1046085;28;1683;-49
2022/07/19 01:37:25;;;;;;;;;;;;;;;;;;1045445;28;3979;-51
2022/07/19 01:37:56;;;;;;;;;;;;;;;;;;1046071;28;1581;-51
2022/07/19 01:38:26;;;;;;;;;;;;;;;;;;1044223;28;3881;-49
2022/07/19 01:38:56;;;;;;;;;;;;;;;;;;1044496;28;1657;-51
2022/07/19 01:39:27;;;;;;;;;;;;;;;;;;1043842;28;4293;-53
2022/07/19 01:39:58;;;;;;;;;;;;;;;;;;1044622;28;1789;-53
2022/07/19 01:40:28;;;;;;;;;;;;;;;;;;1044302;28;3780;-48
2022/07/19 01:40:58;;;;;;;;;;;;;;;;;;1044740;28;1749;-49
2022/07/19 01:41:28;;;;;;;;;;;;;;;;;;1044660;28;4215;-48
2022/07/19 01:41:59;;;;;;;;;;;;;;;;;;1044619;28;1644;-50
2022/07/19 01:42:29;;;;;;;;;;;;;;;;;;1045309;28;3748;-51
2022/07/19 01:43:00;;;;;;;;;;;;;;;;;;1045723;28;1647;-52
2022/07/19 01:43:30;;;;;;;;;;;;;;;;;;1041654;28;3880;-51
2022/07/19 01:44:00;;;;;;;;;;;;;;;;;;1041107;28;1891;-52
2022/07/19 01:44:30;;;;;;;;;;;;;;;;;;1041207;28;3882;-48
2022/07/19 01:45:01;;;;;;;;;;;;;;;;;;1041496;28;4314;-50
2022/07/19 01:45:31;;;;;;;;;;;;;;;;;;1044523;28;1421;-50
2022/07/19 01:46:02;;;;;;;;;;;;;;;;;;1045133;28;3805;-52
2022/07/19 01:46:32;;;;;;;;;;;;;;;;;;1045146;28;1627;-50
2022/07/19 01:47:03;;;;;;;;;;;;;;;;;;1045466;28;3982;-52
2022/07/19 01:47:33;;;;;;;;;;;;;;;;;;1039716;28;1391;-49
2022/07/19 01:48:04;;;;;;;;;;;;;;;;;;1044045;28;3821;-49
2022/07/19 01:48:35;;;;;;;;;;;;;;;;;;1044012;28;1588;-50
2022/07/19 01:49:05;;;;;;;;;;;;;;;;;;1040031;28;3983;-53
2022/07/19 01:49:36;;;;;;;;;;;;;;;;;;1042066;28;1639;-49
2022/07/19 01:50:07;;;;;;;;;;;;;;;;;;1041775;28;4154;-52
2022/07/19 01:50:37;;;;;;;;;;;;;;;;;;1042014;28;1736;-53
2022/07/19 01:51:07;;;;;;;;;;;;;;;;;;1044786;28;3982;-52
2022/07/19 01:51:38;;;;;;;;;;;;;;;;;;1045089;28;1661;-50
2022/07/19 01:52:08;;;;;;;;;;;;;;;;;;1045289;28;3827;-47
2022/07/19 01:52:39;;;;;;;;;;;;;;;;;;1045775;28;1330;-50
2022/07/19 01:53:09;;;;;;;;;;;;;;;;;;1045363;28;3998;-51
2022/07/19 01:53:39;;;;;;;;;;;;;;;;;;1046869;28;1621;-50
2022/07/19 01:54:10;;;;;;;;;;;;;;;;;;1042198;28;3961;-50
2022/07/19 01:54:40;;;;;;;;;;;;;;;;;;1040861;28;1979;-47
2022/07/19 01:55:10;;;;;;;;;;;;;;;;;;1040145;28;4575;-56
2022/07/19 01:55:40;;;;;;;;;;;;;;;;;;1038660;28;1340;-51
2022/07/19 01:56:11;;;;;;;;;;;;;;;;;;1040958;28;3998;-51
2022/07/19 01:56:42;;;;;;;;;;;;;;;;;;1041334;28;1607;-53
2022/07/19 01:57:12;;;;;;;;;;;;;;;;;;1041912;28;3936;-49
2022/07/19 01:57:43;;;;;;;;;;;;;;;;;;1041036;28;1698;-50
2022/07/19 01:58:13;;;;;;;;;;;;;;;;;;1040652;28;4123;-54
2022/07/19 01:58:43;;;;;;;;;;;;;;;;;;1035557;28;1588;-53
2022/07/19 01:59:14;;;;;;;;;;;;;;;;;;1033151;28;3958;-50
2022/07/19 01:59:44;;;;;;;;;;;;;;;;;;1038170;28;1702;-52
2022/07/19 02:00:14;;;;;;;;;;;;;;;;;;1038776;28;3864;-47
2022/07/19 02:00:45;;;;;;;;;;;;;;;;;;1042400;28;1798;-50
2022/07/19 02:01:15;;;;;;;;;;;;;;;;;;1045366;28;3888;-50
2022/07/19 02:01:45;;;;;;;;;;;;;;;;;;1040477;28;1582;-50
2022/07/19 02:02:16;;;;;;;;;;;;;;;;;;1042864;28;3867;-51
2022/07/19 02:02:46;;;;;;;;;;;;;;;;;;1038626;28;1403;-49
2022/07/19 02:03:17;;;;;;;;;;;;;;;;;;1042648;28;3834;-50
2022/07/19 02:03:48;;;;;;;;;;;;;;;;;;1041895;28;1628;-52
2022/07/19 02:04:18;;;;;;;;;;;;;;;;;;1042682;28;4092;-52
2022/07/19 02:04:49;;;;;;;;;;;;;;;;;;1042406;28;1609;-50
2022/07/19 02:05:19;;;;;;;;;;;;;;;;;;1042618;28;3862;-47
2022/07/19 02:05:49;;;;;;;;;;;;;;;;;;1044953;28;1332;-52
2022/07/19 02:06:21;;;;;;;;;;;;;;;;;;1040381;28;4005;-51
2022/07/19 02:06:51;;;;;;;;;;;;;;;;;;1039906;28;1817;-54
2022/07/19 02:07:22;;;;;;;;;;;;;;;;;;1040158;28;4269;-53
2022/07/19 02:07:52;;;;;;;;;;;;;;;;;;1040863;28;1474;-52
2022/07/19 02:08:22;;;;;;;;;;;;;;;;;;1046033;28;4184;-50
2022/07/19 02:08:53;;;;;;;;;;;;;;;;;;1046311;28;1678;-48
2022/07/19 02:09:23;;;;;;;;;;;;;;;;;;1045376;28;3806;-51
2022/07/19 02:09:55;;;;;;;;;;;;;;;;;;1046881;28;1632;-49
2022/07/19 02:10:26;;;;;;;;;;;;;;;;;;1046156;28;4445;-50
2022/07/19 02:10:56;;;;;;;;;;;;;;;;;;1045273;28;1468;-51
2022/07/19 02:11:35;;;;;;;;;;;;;;;;;;1042197;28;4232;-51
2022/07/19 02:12:05;;;;;;;;;;;;;;;;;;1042405;28;4413;-49
2022/07/19 02:12:36;;;;;;;;;;;;;;;;;;1038450;28;1951;-50
2022/07/19 02:13:06;;;;;;;;;;;;;;;;;;1039139;28;4006;-51
2022/07/19 02:13:36;;;;;;;;;;;;;;;;;;1042257;28;1881;-50
2022/07/19 02:14:07;;;;;;;;;;;;;;;;;;1042256;28;3943;-51
2022/07/19 02:14:38;;;;;;;;;;;;;;;;;;1045582;28;1914;-50
2022/07/19 02:15:08;;;;;;;;;;;;;;;;;;1045719;28;4151;-52
2022/07/19 02:15:38;;;;;;;;;;;;;;;;;;1044917;28;1571;-47
2022/07/19 02:16:09;;;;;;;;;;;;;;;;;;1042219;28;3908;-53
2022/07/19 02:16:39;;;;;;;;;;;;;;;;;;1043058;28;1622;-49
2022/07/19 02:17:23;;;;;;;;;;;;;;;;;;1042203;28;4095;-52
2022/07/19 02:18:01;;;;;;;;;;;;;;;;;;1041124;28;3922;-51
2022/07/19 02:18:32;;;;;;;;;;;;;;;;;;1042725;28;1734;-49
2022/07/19 02:19:09;;;;;;;;;;;;;;;;;;1041554;28;3900;-49
2022/07/19 02:19:40;;;;;;;;;;;;;;;;;;1042979;28;1595;-53
2022/07/19 02:20:10;;;;;;;;;;;;;;;;;;1040603;28;4663;-51
2022/07/19 02:20:40;;;;;;;;;;;;;;;;;;1042659;28;1571;-49
2022/07/19 02:21:11;;;;;;;;;;;;;;;;;;1039828;28;3896;-49
2022/07/19 02:21:41;;;;;;;;;;;;;;;;;;1041686;28;1420;-51
2022/07/19 02:22:11;;;;;;;;;;;;;;;;;;1040389;28;4058;-50
2022/07/19 02:22:41;;;;;;;;;;;;;;;;;;1041327;28;1646;-48
2022/07/19 02:23:14;;;;;;;;;;;;;;;;;;1040214;28;3850;-48
2022/07/19 02:23:45;;;;;;;;;;;;;;;;;;1042305;28;3710;-48
2022/07/19 02:24:15;;;;;;;;;;;;;;;;;;1040591;28;3915;-51
2022/07/19 02:24:45;;;;;;;;;;;;;;;;;;1041591;28;1661;-52
2022/07/19 02:25:16;;;;;;;;;;;;;;;;;;1041152;28;3911;-54
2022/07/19 02:25:46;;;;;;;;;;;;;;;;;;1041987;28;1663;-53
2022/07/19 02:26:16;;;;;;;;;;;;;;;;;;1042171;28;4085;-51
2022/07/19 02:26:46;;;;;;;;;;;;;;;;;;1041444;28;1584;-52
2022/07/19 02:27:17;;;;;;;;;;;;;;;;;;1041807;28;3926;-51
2022/07/19 02:27:47;;;;;;;;;;;;;;;;;;1042103;28;1339;-52
2022/07/19 02:28:17;;;;;;;;;;;;;;;;;;1040002;28;3918;-49
2022/07/19 02:28:48;;;;;;;;;;;;;;;;;;1041927;28;1429;-52
2022/07/19 02:29:18;;;;;;;;;;;;;;;;;;1041084;28;4439;-54
2022/07/19 02:29:48;;;;;;;;;;;;;;;;;;1041054;28;1476;-54
2022/07/19 02:30:19;;;;;;;;;;;;;;;;;;1041841;28;3908;-51
2022/07/19 02:30:49;;;;;;;;;;;;;;;;;;1043223;28;1585;-50
2022/07/19 02:31:19;;;;;;;;;;;;;;;;;;1046242;28;3858;-52
2022/07/19 02:31:50;;;;;;;;;;;;;;;;;;1041121;28;1703;-52
2022/07/19 02:32:20;;;;;;;;;;;;;;;;;;1041138;28;4125;-55
2022/07/19 02:32:50;;;;;;;;;;;;;;;;;;1038563;28;1320;-54
2022/07/19 02:33:20;;;;;;;;;;;;;;;;;;1037939;28;3800;-52
2022/07/19 02:33:51;;;;;;;;;;;;;;;;;;1042669;28;1564;-50
2022/07/19 02:34:21;;;;;;;;;;;;;;;;;;1041559;28;3880;-52
2022/07/19 02:34:51;;;;;;;;;;;;;;;;;;1045668;28;1975;-50
2022/07/19 02:35:22;;;;;;;;;;;;;;;;;;1040564;28;4039;-51
2022/07/19 02:35:52;;;;;;;;;;;;;;;;;;1041828;28;1360;-52
2022/07/19 02:36:22;;;;;;;;;;;;;;;;;;1040668;28;3821;-52
2022/07/19 02:36:53;;;;;;;;;;;;;;;;;;1046792;28;1623;-49
2022/07/19 02:37:23;;;;;;;;;;;;;;;;;;1046100;28;4265;-48
2022/07/19 02:37:53;;;;;;;;;;;;;;;;;;1046686;28;1637;-50
2022/07/19 02:38:23;;;;;;;;;;;;;;;;;;1046566;28;4113;-49
2022/07/19 02:38:54;;;;;;;;;;;;;;;;;;1040755;28;1898;-50
2022/07/19 02:39:24;;;;;;;;;;;;;;;;;;1041410;28;3874;-53
2022/07/19 02:39:54;;;;;;;;;;;;;;;;;;1040880;28;2184;-49
2022/07/19 02:40:25;;;;;;;;;;;;;;;;;;1041349;28;3792;-51
2022/07/19 02:40:55;;;;;;;;;;;;;;;;;;1041835;28;1649;-51
2022/07/19 02:41:25;;;;;;;;;;;;;;;;;;1041112;28;3828;-50
2022/07/19 02:41:55;;;;;;;;;;;;;;;;;;1042087;28;1922;-54
2022/07/19 02:42:26;;;;;;;;;;;;;;;;;;1042173;28;3829;-51
2022/07/19 02:42:56;;;;;;;;;;;;;;;;;;1041906;28;1676;-52
2022/07/19 02:43:26;;;;;;;;;;;;;;;;;;1041341;28;3968;-49
2022/07/19 02:43:57;;;;;;;;;;;;;;;;;;1041864;28;1654;-53
2022/07/19 02:44:27;;;;;;;;;;;;;;;;;;1043384;28;4360;-52
2022/07/19 02:44:57;;;;;;;;;;;;;;;;;;1042354;28;1718;-51
2022/07/19 02:45:28;;;;;;;;;;;;;;;;;;1042628;28;3775;-51
2022/07/19 02:45:58;;;;;;;;;;;;;;;;;;1042608;28;1644;-51
2022/07/19 02:46:29;;;;;;;;;;;;;;;;;;1041945;28;3778;-48
2022/07/19 02:46:59;;;;;;;;;;;;;;;;;;1040722;28;1736;-53
2022/07/19 02:47:29;;;;;;;;;;;;;;;;;;1041478;28;3846;-50
2022/07/19 02:48:00;;;;;;;;;;;;;;;;;;1041498;28;1499;-50
2022/07/19 02:48:31;;;;;;;;;;;;;;;;;;1041555;28;3872;-49
2022/07/19 02:49:01;;;;;;;;;;;;;;;;;;1041165;28;3936;-50
2022/07/19 02:49:31;;;;;;;;;;;;;;;;;;1041941;28;1632;-48
2022/07/19 02:50:01;;;;;;;;;;;;;;;;;;1041427;28;4068;-49
2022/07/19 02:50:32;;;;;;;;;;;;;;;;;;1042272;28;1627;-51
2022/07/19 02:51:02;;;;;;;;;;;;;;;;;;1042375;28;4214;-51
2022/07/19 02:51:32;;;;;;;;;;;;;;;;;;1042458;28;2532;-53
2022/07/19 02:52:03;;;;;;;;;;;;;;;;;;1042119;28;3912;-50
2022/07/19 02:52:33;;;;;;;;;;;;;;;;;;1041210;28;1952;-52
2022/07/19 02:53:04;;;;;;;;;;;;;;;;;;1040366;28;4189;-52
2022/07/19 02:53:34;;;;;;;;;;;;;;;;;;1041594;28;1641;-50
2022/07/19 02:54:04;;;;;;;;;;;;;;;;;;1042125;28;4285;-50
2022/07/19 02:54:34;;;;;;;;;;;;;;;;;;1045123;28;1953;-48
2022/07/19 02:55:05;;;;;;;;;;;;;;;;;;1044794;28;4260;-51
2022/07/19 02:55:36;;;;;;;;;;;;;;;;;;1044963;28;1541;-54
2022/07/19 02:56:06;;;;;;;;;;;;;;;;;;1042028;28;4093;-51
2022/07/19 02:56:36;;;;;;;;;;;;;;;;;;1042312;28;1681;-49
2022/07/19 02:57:07;;;;;;;;;;;;;;;;;;1038255;28;4470;-51
2022/07/19 02:57:37;;;;;;;;;;;;;;;;;;1038119;28;1345;-52
2022/07/19 02:58:07;;;;;;;;;;;;;;;;;;1042725;28;4079;-51
2022/07/19 02:58:37;;;;;;;;;;;;;;;;;;1042045;28;1365;-50
2022/07/19 02:59:08;;;;;;;;;;;;;;;;;;1041241;28;3917;-52
2022/07/19 02:59:39;;;;;;;;;;;;;;;;;;1041515;28;1678;-48
2022/07/19 03:00:09;;;;;;;;;;;;;;;;;;1040797;28;4959;-51
2022/07/19 03:00:40;;;;;;;;;;;;;;;;;;1041616;28;1585;-52
2022/07/19 03:01:10;;;;;;;;;;;;;;;;;;1041115;28;3856;-49
2022/07/19 03:01:40;;;;;;;;;;;;;;;;;;1040777;28;1876;-51
2022/07/19 03:02:10;;;;;;;;;;;;;;;;;;1041945;28;4046;-52
2022/07/19 03:02:41;;;;;;;;;;;;;;;;;;1041253;28;1833;-50
2022/07/19 03:04:00;;;;;;;;;;;;;;;;;;1041935;28;1631;-50
2022/07/19 03:04:30;;;;;;;;;;;;;;;;;;1041001;28;3754;-52
2022/07/19 03:05:01;;;;;;;;;;;;;;;;;;1041870;28;3806;-50
2022/07/19 03:05:31;;;;;;;;;;;;;;;;;;1041155;28;1522;-49
2022/07/19 03:06:01;;;;;;;;;;;;;;;;;;1042258;28;4451;-56
2022/07/19 03:06:31;;;;;;;;;;;;;;;;;;1043134;28;1829;-53
2022/07/19 03:07:02;;;;;;;;;;;;;;;;;;1042582;28;4300;-52
2022/07/19 03:07:32;;;;;;;;;;;;;;;;;;1042668;28;1644;-51
2022/07/19 03:08:02;;;;;;;;;;;;;;;;;;1041843;28;4229;-52
2022/07/19 03:08:33;;;;;;;;;;;;;;;;;;1041614;28;1886;-54
2022/07/19 03:09:03;;;;;;;;;;;;;;;;;;1041599;28;4488;-50
2022/07/19 03:09:33;;;;;;;;;;;;;;;;;;1041701;28;1816;-49
2022/07/19 03:10:10;;;;;;;;;;;;;;;;;;1040305;28;4035;-52
2022/07/19 03:10:40;;;;;;;;;;;;;;;;;;1041380;28;1698;-55
2022/07/19 03:11:11;;;;;;;;;;;;;;;;;;1046049;28;4181;-52
2022/07/19 03:11:41;;;;;;;;;;;;;;;;;;1042212;28;1837;-53
2022/07/19 03:12:11;;;;;;;;;;;;;;;;;;1041980;28;4227;-51
2022/07/19 03:12:42;;;;;;;;;;;;;;;;;;1038667;28;1523;-52
2022/07/19 03:13:12;;;;;;;;;;;;;;;;;;1037722;28;4292;-53
2022/07/19 03:13:42;;;;;;;;;;;;;;;;;;1042760;28;1761;-52
2022/07/19 03:14:13;;;;;;;;;;;;;;;;;;1042159;28;3915;-51
2022/07/19 03:14:43;;;;;;;;;;;;;;;;;;1042151;28;1930;-53
2022/07/19 03:15:13;;;;;;;;;;;;;;;;;;1041604;28;4261;-49
2022/07/19 03:15:43;;;;;;;;;;;;;;;;;;1041750;28;1642;-52
2022/07/19 03:16:14;;;;;;;;;;;;;;;;;;1040741;28;3997;-50
2022/07/19 03:16:44;;;;;;;;;;;;;;;;;;1041653;28;1577;-49
2022/07/19 03:17:27;;;;;;;;;;;;;;;;;;1039462;28;4217;-51
2022/07/19 03:18:05;;;;;;;;;;;;;;;;;;1035812;28;4024;-50
2022/07/19 03:18:35;;;;;;;;;;;;;;;;;;1037271;28;1977;-48
2022/07/19 03:19:08;;;;;;;;;;;;;;;;;;1036257;28;3892;-54
2022/07/19 03:19:38;;;;;;;;;;;;;;;;;;1037895;28;1700;-47
2022/07/19 03:20:09;;;;;;;;;;;;;;;;;;1036881;28;3876;-54
2022/07/19 03:20:39;;;;;;;;;;;;;;;;;;1037468;28;1579;-53
2022/07/19 03:21:09;;;;;;;;;;;;;;;;;;1037609;28;4090;-48
2022/07/19 03:21:40;;;;;;;;;;;;;;;;;;1037862;28;1560;-52
2022/07/19 03:22:10;;;;;;;;;;;;;;;;;;1037015;28;3866;-50
2022/07/19 03:22:40;;;;;;;;;;;;;;;;;;1037975;28;1689;-51
2022/07/19 03:23:10;;;;;;;;;;;;;;;;;;1036707;28;4434;-51
2022/07/19 03:23:41;;;;;;;;;;;;;;;;;;1037317;28;1710;-48
2022/07/19 03:24:11;;;;;;;;;;;;;;;;;;1041443;28;4011;-50
2022/07/19 03:24:41;;;;;;;;;;;;;;;;;;1042163;28;1617;-51
2022/07/19 03:25:11;;;;;;;;;;;;;;;;;;1041939;28;4394;-51
2022/07/19 03:25:42;;;;;;;;;;;;;;;;;;1042183;28;1819;-50
2022/07/19 03:26:12;;;;;;;;;;;;;;;;;;1041764;28;3810;-50
2022/07/19 03:26:42;;;;;;;;;;;;;;;;;;1042079;28;1816;-49
2022/07/19 03:27:12;;;;;;;;;;;;;;;;;;1042313;28;3973;-51
2022/07/19 03:27:43;;;;;;;;;;;;;;;;;;1034514;28;1873;-52
2022/07/19 03:28:13;;;;;;;;;;;;;;;;;;1033632;28;4095;-50
2022/07/19 03:28:43;;;;;;;;;;;;;;;;;;1032658;28;1791;-52
2022/07/19 03:29:14;;;;;;;;;;;;;;;;;;1032423;28;4103;-49
2022/07/19 03:29:44;;;;;;;;;;;;;;;;;;1037388;28;2049;-50
2022/07/19 03:30:14;;;;;;;;;;;;;;;;;;1037716;28;3891;-52
2022/07/19 03:30:45;;;;;;;;;;;;;;;;;;1037476;28;1557;-51
2022/07/19 03:31:15;;;;;;;;;;;;;;;;;;1037816;28;4024;-53
2022/07/19 03:31:46;;;;;;;;;;;;;;;;;;1036591;28;1744;-49
2022/07/19 03:32:16;;;;;;;;;;;;;;;;;;1038126;28;3940;-51
2022/07/19 03:32:46;;;;;;;;;;;;;;;;;;1036316;28;1623;-49
2022/07/19 03:33:17;;;;;;;;;;;;;;;;;;1037636;28;3793;-52
2022/07/19 03:33:47;;;;;;;;;;;;;;;;;;1037492;28;1619;-51
2022/07/19 03:34:17;;;;;;;;;;;;;;;;;;1037804;28;3978;-54
2022/07/19 03:34:47;;;;;;;;;;;;;;;;;;1037420;28;1641;-52
2022/07/19 03:35:19;;;;;;;;;;;;;;;;;;1037194;28;3823;-49